createdAt,value
2018-09-13T00:00:55.476Z,25.90
2018-09-13T00:03:23.888Z,25.70
2018-09-13T00:05:52.965Z,24.83
2018-09-13T00:08:21.352Z,25.30
2018-09-13T00:10:49.840Z,24.57
2018-09-13T00:13:18.245Z,26.17
2018-09-13T00:15:46.661Z,27.30
2018-09-13T00:18:15.310Z,25.77
2018-09-13T00:20:43.719Z,27.47
2018-09-13T00:23:12.132Z,26.60
2018-09-13T00:25:40.685Z,25.83
2018-09-13T00:28:09.110Z,22.90
2018-09-13T00:30:37.519Z,21.23
2018-09-13T00:33:06.106Z,21.97
2018-09-13T00:35:34.465Z,19.67
2018-09-13T00:38:02.916Z,19.03
2018-09-13T00:40:31.417Z,18.33
2018-09-13T00:42:59.804Z,17.83
2018-09-13T00:45:28.209Z,17.03
2018-09-13T00:47:56.726Z,17.90
2018-09-13T00:50:25.123Z,16.63
2018-09-13T00:52:53.489Z,17.60
2018-09-13T00:55:22.207Z,15.60
2018-09-13T00:57:50.654Z,16.30
2018-09-13T01:00:19.052Z,16.03
2018-09-13T01:02:47.475Z,16.30
2018-09-13T01:05:15.853Z,15.10
2018-09-13T01:07:44.701Z,15.27
2018-09-13T01:10:14.124Z,14.97
2018-09-13T01:12:42.536Z,15.03
2018-09-13T01:15:10.932Z,14.43
2018-09-13T01:17:39.543Z,16.63
2018-09-13T01:20:07.987Z,14.97
2018-09-13T01:22:36.437Z,14.80
2018-09-13T01:25:04.994Z,15.70
2018-09-13T01:27:33.411Z,15.83
2018-09-13T01:30:01.840Z,16.53
2018-09-13T01:32:30.256Z,15.53
2018-09-13T01:34:58.662Z,16.40
2018-09-13T01:37:27.120Z,15.90
2018-09-13T01:39:55.500Z,16.97
2018-09-13T01:42:23.914Z,16.30
2018-09-13T01:44:52.288Z,17.20
2018-09-13T01:47:20.926Z,16.93
2018-09-13T01:49:49.296Z,18.60
2018-09-13T01:52:17.717Z,18.37
2018-09-13T01:54:46.118Z,19.50
2018-09-13T01:57:14.502Z,20.03
2018-09-13T01:59:42.931Z,19.07
2018-09-13T02:02:11.444Z,19.90
2018-09-13T02:04:39.861Z,20.70
2018-09-13T02:07:08.284Z,20.30
2018-09-13T02:09:36.695Z,21.20
2018-09-13T02:12:05.114Z,20.90
2018-09-13T02:14:33.534Z,22.20
2018-09-13T02:17:01.931Z,21.97
2018-09-13T02:19:30.398Z,22.60
2018-09-13T02:21:58.783Z,20.80
2018-09-13T02:24:27.217Z,21.43
2018-09-13T02:26:55.584Z,22.23
2018-09-13T02:29:24.977Z,20.33
2018-09-13T02:31:53.329Z,19.77
2018-09-13T02:34:22.532Z,18.50
2018-09-13T02:36:50.922Z,18.03
2018-09-13T02:39:20.197Z,19.33
2018-09-13T02:41:49.459Z,19.73
2018-09-13T02:44:17.907Z,19.93
2018-09-13T02:46:46.377Z,17.97
2018-09-13T02:49:14.899Z,18.70
2018-09-13T02:51:43.298Z,19.07
2018-09-13T02:54:11.683Z,17.30
2018-09-13T02:56:40.168Z,18.10
2018-09-13T02:59:08.580Z,18.53
2018-09-13T03:01:37.048Z,18.53
2018-09-13T03:04:05.449Z,19.30
2018-09-13T03:06:34.023Z,17.80
2018-09-13T03:09:02.453Z,16.93
2018-09-13T03:11:32.394Z,17.70
2018-09-13T03:14:00.787Z,16.73
2018-09-13T03:16:29.162Z,15.73
2018-09-13T03:18:57.581Z,17.10
2018-09-13T03:21:25.943Z,15.50
2018-09-13T03:23:54.381Z,16.97
2018-09-13T03:26:22.772Z,16.17
2018-09-13T03:28:51.256Z,15.83
2018-09-13T03:31:19.696Z,16.07
2018-09-13T03:33:48.169Z,16.10
2018-09-13T03:36:16.555Z,14.27
2018-09-13T03:38:44.968Z,15.87
2018-09-13T03:41:13.384Z,14.63
2018-09-13T03:43:42.955Z,13.47
2018-09-13T03:46:11.569Z,14.00
2018-09-13T03:48:40.655Z,12.73
2018-09-13T03:51:10.053Z,16.17
2018-09-13T03:53:39.168Z,15.80
2018-09-13T03:56:07.609Z,15.53
2018-09-13T03:58:36.009Z,16.17
2018-09-13T04:01:04.501Z,16.07
2018-09-13T04:03:32.950Z,14.70
2018-09-13T04:06:01.424Z,14.10
2018-09-13T04:08:31.052Z,15.43
2018-09-13T04:10:59.448Z,14.90
2018-09-13T04:13:27.878Z,13.80
2018-09-13T04:15:56.284Z,14.30
2018-09-13T04:18:24.690Z,15.27
2018-09-13T04:20:53.661Z,17.07
2018-09-13T04:23:22.060Z,17.17
2018-09-13T04:25:50.688Z,18.23
2018-09-13T04:28:19.152Z,20.00
2018-09-13T04:30:47.587Z,20.10
2018-09-13T04:33:16.030Z,19.93
2018-09-13T04:35:44.466Z,21.23
2018-09-13T04:38:12.846Z,22.80
2018-09-13T04:40:41.270Z,22.73
2018-09-13T04:43:09.687Z,23.63
2018-09-13T04:45:38.097Z,22.43
2018-09-13T04:48:06.559Z,22.87
2018-09-13T04:50:34.976Z,22.53
2018-09-13T04:53:03.443Z,22.60
2018-09-13T04:55:33.014Z,23.93
2018-09-13T04:58:01.419Z,23.63
2018-09-13T05:00:29.824Z,21.70
2018-09-13T05:02:58.804Z,23.03
2018-09-13T05:05:27.229Z,23.87
2018-09-13T05:07:55.698Z,22.57
2018-09-13T05:10:24.108Z,21.53
2018-09-13T05:12:53.179Z,22.80
2018-09-13T05:15:21.510Z,24.50
2018-09-13T05:17:50.583Z,23.50
2018-09-13T05:20:18.999Z,25.03
2018-09-13T05:22:47.397Z,22.77
2018-09-13T05:25:15.876Z,22.70
2018-09-13T05:27:44.253Z,23.50
2018-09-13T05:30:12.723Z,25.07
2018-09-13T05:32:41.134Z,27.67
2018-09-13T05:35:09.549Z,24.80
2018-09-13T05:37:38.224Z,24.47
2018-09-13T05:40:06.680Z,24.20
2018-09-13T05:42:35.071Z,24.80
2018-09-13T05:45:03.591Z,23.70
2018-09-13T05:47:32.087Z,26.00
2018-09-13T05:50:00.617Z,30.40
2018-09-13T05:52:28.976Z,26.40
2018-09-13T05:54:57.408Z,25.50
2018-09-13T05:57:26.849Z,26.17
2018-09-13T05:59:55.308Z,26.63
2018-09-13T06:02:23.692Z,25.10
2018-09-13T06:04:52.105Z,25.23
2018-09-13T06:07:20.508Z,25.80
2018-09-13T06:09:48.924Z,24.17
2018-09-13T06:12:17.357Z,25.80
2018-09-13T06:14:45.769Z,25.20
2018-09-13T06:17:14.168Z,24.47
2018-09-13T06:19:42.688Z,25.17
2018-09-13T06:22:11.047Z,24.43
2018-09-13T06:24:39.458Z,25.27
2018-09-13T06:27:07.976Z,24.23
2018-09-13T06:29:36.602Z,23.37
2018-09-13T06:32:05.048Z,22.27
2018-09-13T06:34:33.478Z,23.10
2018-09-13T06:37:02.126Z,20.67
2018-09-13T06:39:30.565Z,19.30
2018-09-13T06:41:58.980Z,19.43
2018-09-13T06:44:27.387Z,19.30
2018-09-13T06:46:55.773Z,19.73
2018-09-13T06:49:24.177Z,18.47
2018-09-13T06:51:52.584Z,19.07
2018-09-13T06:54:21.025Z,19.30
2018-09-13T06:56:49.459Z,18.73
2018-09-13T06:59:17.879Z,17.87
2018-09-13T07:01:46.315Z,18.97
2018-09-13T07:04:14.694Z,18.97
2018-09-13T07:06:43.137Z,17.80
2018-09-13T07:09:13.874Z,17.07
2018-09-13T07:11:42.677Z,17.93
2018-09-13T07:14:11.090Z,17.00
2018-09-13T07:16:39.489Z,17.80
2018-09-13T07:19:07.888Z,18.17
2018-09-13T07:21:36.408Z,18.50
2018-09-13T07:24:05.098Z,17.30
2018-09-13T07:26:33.558Z,17.43
2018-09-13T07:29:01.942Z,18.37
2018-09-13T07:31:30.360Z,18.60
2018-09-13T07:33:58.769Z,18.43
2018-09-13T07:36:27.144Z,19.27
2018-09-13T07:38:55.576Z,18.17
2018-09-13T07:41:23.969Z,18.93
2018-09-13T07:43:52.380Z,18.00
2018-09-13T07:46:20.795Z,17.30
2018-09-13T07:48:49.203Z,19.30
2018-09-13T07:51:17.618Z,18.90
2018-09-13T07:53:46.054Z,19.97
2018-09-13T07:56:14.610Z,19.47
2018-09-13T07:58:43.032Z,17.40
2018-09-13T08:01:11.444Z,18.30
2018-09-13T08:03:39.869Z,18.77
2018-09-13T08:06:08.712Z,19.03
2018-09-13T08:08:37.117Z,19.20
2018-09-13T08:11:05.565Z,18.00
2018-09-13T08:13:33.962Z,19.43
2018-09-13T08:16:02.404Z,19.30
2018-09-13T08:18:30.763Z,19.33
2018-09-13T08:20:59.192Z,19.43
2018-09-13T08:23:27.741Z,19.97
2018-09-13T08:25:56.187Z,19.13
2018-09-13T08:28:24.550Z,18.27
2018-09-13T08:30:52.955Z,16.60
2018-09-13T08:33:21.395Z,18.17
2018-09-13T08:35:49.796Z,16.90
2018-09-13T08:38:18.228Z,16.63
2018-09-13T08:40:46.712Z,16.40
2018-09-13T08:43:15.159Z,18.10
2018-09-13T08:45:43.497Z,16.90
2018-09-13T08:48:11.992Z,17.70
2018-09-13T08:50:40.400Z,18.10
2018-09-13T08:53:08.876Z,17.53
2018-09-13T08:55:37.301Z,18.97
2018-09-13T08:58:05.820Z,18.50
2018-09-13T09:00:34.340Z,17.33
2018-09-13T09:03:02.774Z,18.17
2018-09-13T09:05:31.214Z,17.73
2018-09-13T09:07:59.603Z,17.93
2018-09-13T09:10:28.005Z,16.70
2018-09-13T09:12:56.408Z,17.40
2018-09-13T09:15:24.987Z,16.90
2018-09-13T09:17:53.377Z,17.87
2018-09-13T09:20:21.838Z,17.70
2018-09-13T09:22:50.196Z,19.40
2018-09-13T09:25:18.606Z,18.60
2018-09-13T09:27:46.988Z,21.37
2018-09-13T09:30:15.440Z,21.03
2018-09-13T09:32:44.497Z,22.37
2018-09-13T09:35:12.941Z,23.67
2018-09-13T09:37:41.358Z,25.23
2018-09-13T09:40:10.384Z,26.77
2018-09-13T09:42:38.808Z,26.80
2018-09-13T09:45:07.260Z,25.77
2018-09-13T09:47:35.645Z,28.23
2018-09-13T09:50:04.281Z,28.70
2018-09-13T09:52:32.792Z,28.93
2018-09-13T09:55:01.120Z,31.13
2018-09-13T09:57:29.546Z,30.43
2018-09-13T09:59:57.958Z,30.33
2018-09-13T10:02:26.352Z,29.20
2018-09-13T10:04:54.777Z,23.80
2018-09-13T10:07:23.248Z,22.27
2018-09-13T10:09:51.756Z,23.23
2018-09-13T10:12:20.281Z,23.20
2018-09-13T10:14:53.916Z,20.80
2018-09-13T10:17:27.635Z,22.17
2018-09-13T10:20:01.445Z,22.27
2018-09-13T10:22:35.014Z,23.57
2018-09-13T10:25:08.806Z,22.20
2018-09-13T10:27:42.508Z,21.97
2018-09-13T10:30:16.309Z,20.97
2018-09-13T10:32:50.087Z,19.83
2018-09-13T10:35:23.661Z,17.17
2018-09-13T10:37:57.387Z,17.60
2018-09-13T10:40:31.161Z,17.27
2018-09-13T10:43:04.949Z,17.63
2018-09-13T10:45:38.513Z,15.87
2018-09-13T10:48:12.215Z,17.00
2018-09-13T10:50:48.710Z,17.47
2018-09-13T10:53:22.533Z,16.40
2018-09-13T10:55:51.654Z,14.80
2018-09-13T10:58:20.058Z,15.57
2018-09-13T11:00:48.481Z,13.70
2018-09-13T11:03:16.896Z,13.90
2018-09-13T11:05:45.445Z,14.43
2018-09-13T11:08:14.017Z,11.13
2018-09-13T11:10:43.189Z,12.60
2018-09-13T11:13:19.830Z,11.73
2018-09-13T11:15:48.356Z,12.03
2018-09-13T11:18:16.767Z,12.00
2018-09-13T11:20:45.148Z,12.90
2018-09-13T11:23:13.551Z,13.20
2018-09-13T11:25:41.937Z,12.07
2018-09-13T11:28:10.316Z,11.90
2018-09-13T11:30:38.792Z,12.40
2018-09-13T11:33:07.341Z,11.43
2018-09-13T11:35:36.349Z,10.30
2018-09-13T11:38:04.788Z,9.40
2018-09-13T11:40:33.539Z,10.80
2018-09-13T11:43:01.726Z,10.07
2018-09-13T11:45:30.202Z,10.00
2018-09-13T11:47:58.629Z,11.50
2018-09-13T11:50:27.071Z,11.00
2018-09-13T11:52:55.989Z,11.80
2018-09-13T11:55:24.412Z,11.67
2018-09-13T11:57:52.872Z,10.60
2018-09-13T12:00:21.265Z,10.67
2018-09-13T12:02:49.661Z,10.83
2018-09-13T12:05:18.066Z,10.30
2018-09-13T12:07:46.502Z,9.13
2018-09-13T12:10:14.944Z,9.83
2018-09-13T12:12:43.400Z,9.40
2018-09-13T12:15:11.802Z,9.97
2018-09-13T12:17:41.070Z,9.43
2018-09-13T12:20:09.497Z,8.53
2018-09-13T12:22:37.977Z,8.90
2018-09-13T12:25:06.297Z,8.23
2018-09-13T12:27:35.272Z,7.60
2018-09-13T12:30:04.849Z,7.43
2018-09-13T12:32:33.975Z,8.73
2018-09-13T12:35:02.409Z,9.37
2018-09-13T12:37:30.864Z,8.33
2018-09-13T12:39:59.293Z,9.77
2018-09-13T12:42:27.732Z,9.70
2018-09-13T12:44:56.164Z,9.57
2018-09-13T12:47:25.439Z,10.60
2018-09-13T12:49:54.577Z,9.80
2018-09-13T12:52:22.990Z,10.40
2018-09-13T12:54:51.402Z,10.60
2018-09-13T12:57:19.817Z,10.83
2018-09-13T12:59:48.248Z,11.20
2018-09-13T13:02:16.728Z,10.70
2018-09-13T13:04:45.139Z,11.60
2018-09-13T13:07:13.577Z,11.30
2018-09-13T13:09:41.985Z,11.53
2018-09-13T13:12:10.451Z,10.50
2018-09-13T13:14:38.894Z,12.50
2018-09-13T13:17:07.331Z,11.90
2018-09-13T13:19:35.747Z,13.27
2018-09-13T13:22:04.345Z,12.20
2018-09-13T13:24:32.840Z,11.67
2018-09-13T13:27:01.347Z,12.57
2018-09-13T13:29:29.799Z,11.40
2018-09-13T13:31:58.251Z,11.43
2018-09-13T13:34:26.682Z,11.57
2018-09-13T13:36:55.209Z,10.80
2018-09-13T13:39:23.624Z,10.20
2018-09-13T13:41:52.072Z,10.90
2018-09-13T13:44:20.527Z,10.93
2018-09-13T13:46:49.339Z,11.03
2018-09-13T13:49:17.756Z,9.53
2018-09-13T13:51:46.195Z,10.00
2018-09-13T13:54:14.636Z,10.93
2018-09-13T13:56:43.188Z,11.77
2018-09-13T13:59:11.646Z,10.10
2018-09-13T14:01:40.061Z,10.27
2018-09-13T14:04:08.464Z,10.03
2018-09-13T14:06:36.997Z,9.57
2018-09-13T14:09:09.109Z,9.50
2018-09-13T14:11:37.503Z,11.27
2018-09-13T14:14:05.946Z,11.57
2018-09-13T14:16:34.897Z,11.40
2018-09-13T14:19:03.386Z,11.67
2018-09-13T14:21:31.876Z,12.67
2018-09-13T14:24:00.365Z,11.87
2018-09-13T14:26:28.781Z,12.70
2018-09-13T14:28:57.263Z,11.33
2018-09-13T14:31:26.310Z,10.90
2018-09-13T14:33:54.745Z,11.23
2018-09-13T14:36:23.126Z,10.80
2018-09-13T14:38:51.836Z,9.27
2018-09-13T14:41:20.301Z,10.27
2018-09-13T14:43:48.689Z,9.57
2018-09-13T14:46:17.136Z,10.33
2018-09-13T14:48:45.548Z,10.13
2018-09-13T14:51:14.204Z,9.50
2018-09-13T14:53:42.723Z,11.23
2018-09-13T14:56:11.263Z,9.70
2018-09-13T14:58:40.748Z,10.00
2018-09-13T15:01:09.295Z,10.40
2018-09-13T15:03:37.787Z,9.77
2018-09-13T15:06:06.277Z,10.30
2018-09-13T15:08:35.344Z,9.00
2018-09-13T15:11:04.166Z,10.23
2018-09-13T15:13:32.708Z,10.07
2018-09-13T15:16:01.140Z,9.60
2018-09-13T15:18:29.680Z,10.03
2018-09-13T15:20:58.117Z,9.80
2018-09-13T15:23:26.566Z,11.20
2018-09-13T15:25:55.021Z,10.30
2018-09-13T15:28:23.649Z,8.93
2018-09-13T15:30:52.068Z,8.70
2018-09-13T15:33:20.520Z,7.97
2018-09-13T15:35:48.925Z,7.37
2018-09-13T15:38:17.436Z,7.43
2018-09-13T15:40:45.873Z,7.33
2018-09-13T15:43:14.381Z,7.70
2018-09-13T15:45:42.788Z,8.70
2018-09-13T15:48:11.172Z,7.90
2018-09-13T15:50:39.585Z,8.20
2018-09-13T15:53:08.035Z,9.30
2018-09-13T15:55:36.421Z,8.80
2018-09-13T15:58:04.937Z,9.00
2018-09-13T16:00:33.354Z,8.00
2018-09-13T16:03:02.651Z,8.13
2018-09-13T16:05:31.106Z,8.60
2018-09-13T16:07:59.523Z,8.20
2018-09-13T16:10:27.945Z,8.70
2018-09-13T16:12:56.457Z,8.93
2018-09-13T16:15:24.824Z,8.80
2018-09-13T16:17:53.290Z,8.37
2018-09-13T16:20:21.758Z,7.70
2018-09-13T16:22:51.309Z,9.30
2018-09-13T16:25:19.730Z,8.50
2018-09-13T16:27:48.179Z,9.20
2018-09-13T16:30:16.633Z,8.00
2018-09-13T16:32:45.152Z,8.47
2018-09-13T16:35:13.770Z,9.67
2018-09-13T16:37:48.064Z,9.83
2018-09-13T16:40:21.754Z,10.10
2018-09-13T16:42:55.509Z,9.00
2018-09-13T16:45:29.573Z,10.40
2018-09-13T16:48:01.434Z,9.57
2018-09-13T16:50:29.914Z,9.20
2018-09-13T16:52:58.294Z,9.20
2018-09-13T16:55:26.782Z,9.33
2018-09-13T16:57:56.221Z,8.70
2018-09-13T17:00:25.528Z,8.23
2018-09-13T17:02:54.161Z,9.00
2018-09-13T17:05:22.650Z,9.70
2018-09-13T17:07:51.092Z,10.13
2018-09-13T17:10:19.540Z,9.43
2018-09-13T17:12:48.052Z,8.00
2018-09-13T17:15:16.847Z,9.07
2018-09-13T17:17:45.272Z,8.03
2018-09-13T17:20:13.730Z,7.87
2018-09-13T17:22:42.349Z,8.10
2018-09-13T17:25:10.761Z,8.03
2018-09-13T17:27:39.221Z,8.77
2018-09-13T17:30:07.686Z,8.63
2018-09-13T17:32:36.096Z,8.53
2018-09-13T17:35:04.620Z,8.30
2018-09-13T17:37:33.066Z,8.80
2018-09-13T17:40:01.541Z,8.93
2018-09-13T17:42:29.925Z,8.60
2018-09-13T17:44:58.420Z,8.07
2018-09-13T17:47:26.872Z,10.80
2018-09-13T17:49:55.290Z,9.23
2018-09-13T17:52:23.700Z,8.90
2018-09-13T17:54:52.150Z,8.70
2018-09-13T17:57:20.613Z,8.93
2018-09-13T17:59:49.087Z,8.40
2018-09-13T18:02:17.557Z,7.93
2018-09-13T18:04:47.398Z,8.10
2018-09-13T18:07:15.768Z,8.60
2018-09-13T18:09:44.188Z,9.10
2018-09-13T18:12:12.629Z,9.13
2018-09-13T18:14:41.061Z,9.57
2018-09-13T18:17:09.561Z,9.27
2018-09-13T18:19:38.028Z,9.50
2018-09-13T18:22:06.527Z,8.70
2018-09-13T18:24:34.876Z,8.23
2018-09-13T18:27:03.350Z,7.80
2018-09-13T18:29:31.761Z,8.50
2018-09-13T18:32:00.198Z,8.00
2018-09-13T18:34:28.616Z,8.30
2018-09-13T18:36:57.038Z,8.93
2018-09-13T18:39:25.466Z,9.07
2018-09-13T18:41:53.836Z,9.60
2018-09-13T18:44:22.284Z,8.90
2018-09-13T18:46:50.694Z,9.43
2018-09-13T18:49:19.111Z,10.10
2018-09-13T18:51:47.502Z,9.40
2018-09-13T18:54:15.979Z,9.20
2018-09-13T18:56:44.337Z,9.90
2018-09-13T18:59:12.805Z,9.03
2018-09-13T19:01:41.863Z,10.00
2018-09-13T19:04:10.324Z,13.77
2018-09-13T19:06:38.745Z,9.70
2018-09-13T19:09:09.401Z,8.87
2018-09-13T19:11:37.828Z,8.80
2018-09-13T19:14:06.401Z,9.63
2018-09-13T19:16:34.984Z,8.77
2018-09-13T19:19:03.412Z,9.63
2018-09-13T19:21:31.853Z,10.10
2018-09-13T19:24:00.281Z,9.37
2018-09-13T19:26:28.728Z,7.97
2018-09-13T19:28:57.106Z,8.23
2018-09-13T19:31:25.527Z,9.20
2018-09-13T19:33:54.030Z,9.23
2018-09-13T19:36:22.469Z,9.53
2018-09-13T19:38:50.943Z,10.00
2018-09-13T19:41:19.509Z,9.10
2018-09-13T19:43:48.055Z,8.57
2018-09-13T19:46:16.479Z,8.97
2018-09-13T19:48:44.997Z,9.60
2018-09-13T19:51:13.627Z,9.37
2018-09-13T19:53:42.044Z,9.40
2018-09-13T19:56:10.447Z,8.47
2018-09-13T19:58:38.876Z,8.53
2018-09-13T20:01:07.337Z,10.10
2018-09-13T20:03:35.853Z,11.03
2018-09-13T20:06:04.353Z,10.70
2018-09-13T20:08:32.777Z,10.20
2018-09-13T20:11:01.203Z,9.80
2018-09-13T20:13:29.631Z,9.80
2018-09-13T20:15:58.105Z,9.20
2018-09-13T20:18:26.583Z,9.73
2018-09-13T20:20:55.046Z,8.40
2018-09-13T20:23:23.449Z,8.90
2018-09-13T20:25:51.913Z,12.13
2018-09-13T20:28:20.340Z,10.57
2018-09-13T20:30:48.874Z,9.90
2018-09-13T20:33:17.276Z,8.83
2018-09-13T20:35:45.709Z,10.47
2018-09-13T20:38:14.132Z,9.97
2018-09-13T20:40:42.556Z,10.40
2018-09-13T20:43:10.944Z,10.37
2018-09-13T20:45:39.428Z,10.10
2018-09-13T20:48:07.917Z,10.33
2018-09-13T20:50:36.398Z,10.60
2018-09-13T20:53:04.813Z,10.93
2018-09-13T20:55:33.209Z,10.13
2018-09-13T20:58:02.458Z,9.90
2018-09-13T21:00:30.868Z,11.17
2018-09-13T21:02:59.289Z,10.67
2018-09-13T21:05:27.737Z,10.73
2018-09-13T21:07:56.415Z,9.70
2018-09-13T21:10:24.834Z,10.17
2018-09-13T21:12:53.282Z,11.40
2018-09-13T21:15:21.647Z,10.93
2018-09-13T21:17:50.114Z,10.70
2018-09-13T21:20:18.554Z,9.50
2018-09-13T21:22:46.979Z,10.50
2018-09-13T21:25:15.405Z,10.30
2018-09-13T21:27:43.829Z,9.97
2018-09-13T21:30:12.260Z,10.33
2018-09-13T21:32:40.711Z,10.70
2018-09-13T21:35:09.120Z,9.90
2018-09-13T21:37:37.528Z,10.47
2018-09-13T21:40:06.067Z,10.90
2018-09-13T21:42:34.519Z,10.90
2018-09-13T21:45:03.053Z,12.97
2018-09-13T21:47:31.593Z,11.10
2018-09-13T21:50:00.036Z,10.60
2018-09-13T21:52:29.397Z,11.53
2018-09-13T21:54:57.773Z,10.17
2018-09-13T21:57:26.237Z,10.30
2018-09-13T21:59:55.204Z,11.40
2018-09-13T22:02:23.645Z,9.83
2018-09-13T22:04:52.238Z,9.40
2018-09-13T22:07:20.673Z,9.13
2018-09-13T22:09:49.149Z,11.00
2018-09-13T22:12:17.606Z,11.30
2018-09-13T22:14:46.037Z,11.53
2018-09-13T22:17:15.829Z,16.00
2018-09-13T22:19:49.735Z,12.60
2018-09-13T22:22:18.186Z,11.03
2018-09-13T22:24:46.668Z,10.97
2018-09-13T22:27:15.081Z,10.80
2018-09-13T22:29:43.556Z,11.97
2018-09-13T22:32:11.997Z,11.50
2018-09-13T22:34:56.735Z,12.70
2018-09-13T22:37:25.199Z,12.47
2018-09-13T22:39:53.659Z,11.00
2018-09-13T22:42:22.093Z,11.40
2018-09-13T22:44:50.625Z,12.00
2018-09-13T22:47:19.009Z,12.83
2018-09-13T22:49:47.429Z,12.47
2018-09-13T22:52:15.858Z,11.03
2018-09-13T22:54:44.389Z,11.50
2018-09-13T22:57:12.851Z,11.00
2018-09-13T22:59:41.305Z,10.27
2018-09-13T23:02:09.792Z,10.60
2018-09-13T23:04:38.193Z,11.50
2018-09-13T23:07:06.612Z,10.57
2018-09-13T23:09:35.597Z,12.03
2018-09-13T23:12:04.109Z,11.77
2018-09-13T23:14:32.569Z,12.30
2018-09-13T23:17:01.009Z,11.13
2018-09-13T23:19:29.417Z,11.60
2018-09-13T23:21:57.864Z,10.80
2018-09-13T23:24:26.242Z,11.70
2018-09-13T23:26:54.685Z,12.20
2018-09-13T23:29:23.139Z,11.63
2018-09-13T23:31:51.626Z,11.33
2018-09-13T23:34:20.068Z,11.47
2018-09-13T23:36:48.444Z,11.83
2018-09-13T23:39:16.945Z,11.80
2018-09-13T23:41:45.331Z,12.70
2018-09-13T23:44:13.830Z,11.80
2018-09-13T23:46:42.272Z,11.30
2018-09-13T23:49:10.704Z,12.30
2018-09-13T23:51:39.129Z,12.00
2018-09-13T23:54:07.597Z,12.57
2018-09-13T23:56:35.970Z,12.83
2018-09-13T23:59:04.525Z,11.00
